Time;durP1;ratioP1;P1;durP2;ratioP2;P2;SDS_P1;SDS_P2;PMS_P1;PMS_P2;Temp;Humidity;BMP_temperature;BMP_pressure;BME280_temperature;BME280_humidity;BME280_pressure;Samples;Min_cycle;Max_cycle;Signal;HPM_P1;HPM_P2
2023/11/13 00:00:33;;;;;;;17.30;12.47;;;;;;;6.06;83.11;99661.78;5091259;28;20734;-68
2023/11/13 00:03:03;;;;;;;19.07;13.13;;;;;;;6.01;83.95;99658.38;5082878;28;20200;-72
2023/11/13 00:05:32;;;;;;;16.07;11.87;;;;;;;6.00;84.08;99661.75;5090498;28;20568;-75
2023/11/13 00:08:01;;;;;;;16.67;12.50;;;;;;;6.02;83.74;99662.63;5089768;28;20551;-73
2023/11/13 00:10:29;;;;;;;16.80;12.37;;;;;;;6.01;84.31;99660.94;5087258;28;20204;-72
2023/11/13 00:12:57;;;;;;;17.97;12.17;;;;;;;6.06;84.38;99669.44;5091471;28;20585;-71
2023/11/13 00:15:27;;;;;;;19.37;12.20;;;;;;;6.05;83.40;99667.75;5085964;28;20587;-74
2023/11/13 00:17:56;;;;;;;17.63;12.27;;;;;;;6.06;83.82;99672.00;5092296;28;20768;-73
2023/11/13 00:20:24;;;;;;;16.80;12.47;;;;;;;6.06;83.67;99677.13;5088188;28;20303;-75
2023/11/13 00:22:53;;;;;;;16.40;11.37;;;;;;;6.03;83.77;99669.44;5090409;28;20197;-74
2023/11/13 00:25:21;;;;;;;14.63;11.03;;;;;;;6.01;83.57;99676.28;5091351;28;20675;-73
2023/11/13 00:27:49;;;;;;;17.60;10.67;;;;;;;5.95;83.74;99681.38;5090527;28;20274;-74
2023/11/13 00:30:17;;;;;;;17.73;11.90;;;;;;;5.91;83.80;99677.06;5087413;28;20201;-72
2023/11/13 00:32:46;;;;;;;16.80;11.00;;;;;;;5.89;83.86;99681.31;5082095;28;20721;-72
2023/11/13 00:35:15;;;;;;;16.73;11.77;;;;;;;5.90;83.69;99680.50;5092586;28;20312;-72
2023/11/13 00:37:43;;;;;;;15.27;10.67;;;;;;;5.90;84.52;99681.34;5086786;28;20211;-72
2023/11/13 00:40:12;;;;;;;14.33;11.00;;;;;;;5.92;83.94;99689.00;5086290;28;20204;-73
2023/11/13 00:42:40;;;;;;;15.37;11.27;;;;;;;5.91;84.17;99690.72;5089375;28;20197;-74
2023/11/13 00:45:09;;;;;;;12.80;10.00;;;;;;;5.98;84.23;99681.38;5096021;28;20599;-72
2023/11/13 00:47:37;;;;;;;16.70;11.33;;;;;;;5.96;83.82;99678.81;5097935;28;20197;-71
2023/11/13 00:50:10;;;;;;;16.00;11.10;;;;;;;5.96;83.50;99680.50;5098880;28;20299;-72
2023/11/13 00:52:39;;;;;;;16.07;10.80;;;;;;;6.02;83.51;99683.09;5096878;28;20595;-73
2023/11/13 00:55:09;;;;;;;15.77;10.47;;;;;;;6.04;83.64;99691.63;5093305;28;20617;-72
2023/11/13 00:57:37;;;;;;;15.33;10.47;;;;;;;6.07;83.17;99685.66;5096762;28;20623;-73
2023/11/13 01:00:08;;;;;;;17.10;10.30;;;;;;;6.08;83.34;99687.38;5097154;28;20578;-74
2023/11/13 01:02:37;;;;;;;14.80;10.50;;;;;;;6.08;83.42;99702.72;5106827;28;20204;-72
2023/11/13 01:05:07;;;;;;;14.50;10.20;;;;;;;6.00;82.52;99688.22;5094667;28;20232;-73
2023/11/13 01:07:35;;;;;;;13.60;10.40;;;;;;;6.01;83.06;99697.59;5094220;28;20201;-71
2023/11/13 01:10:05;;;;;;;13.53;10.07;;;;;;;6.03;82.54;99700.13;5098104;28;20644;-72
2023/11/13 01:12:33;;;;;;;14.37;9.80;;;;;;;6.01;82.71;99696.75;5103396;28;20193;-72
2023/11/13 01:15:06;;;;;;;13.77;10.07;;;;;;;6.02;83.10;99696.72;5104106;28;20715;-71
2023/11/13 01:17:35;;;;;;;13.87;9.77;;;;;;;5.99;82.46;99694.16;5096632;28;20269;-73
2023/11/13 01:20:04;;;;;;;14.33;9.63;;;;;;;5.95;82.88;99700.13;5099003;28;20690;-72
2023/11/13 01:22:33;;;;;;;12.37;9.57;;;;;;;5.92;82.76;99699.22;5096701;28;20281;-76
2023/11/13 01:25:03;;;;;;;14.00;10.50;;;;;;;5.87;83.02;99703.50;5093084;28;20215;-73
2023/11/13 01:27:32;;;;;;;12.90;9.67;;;;;;;5.82;83.46;99701.78;5098112;28;20208;-72
2023/11/13 01:30:00;;;;;;;13.73;9.63;;;;;;;5.82;82.97;99711.16;5100115;28;20218;-72
2023/11/13 01:32:30;;;;;;;13.93;9.60;;;;;;;5.81;83.29;99709.44;5094003;28;21027;-73
2023/11/13 01:34:58;;;;;;;14.37;9.00;;;;;;;5.84;83.21;99703.47;5096558;28;20246;-72
2023/11/13 01:37:26;;;;;;;11.77;8.70;;;;;;;5.85;82.70;99706.03;5098558;28;20344;-71
2023/11/13 01:39:56;;;;;;;10.80;8.67;;;;;;;5.88;82.28;99710.31;5096692;28;20261;-71
2023/11/13 01:42:24;;;;;;;11.93;8.57;;;;;;;5.88;82.32;99710.31;5094445;28;20238;-74
2023/11/13 01:44:52;;;;;;;11.67;8.67;;;;;;;5.90;82.17;99708.63;5099583;28;20211;-71
2023/11/13 01:47:20;;;;;;;10.17;7.67;;;;;;;5.87;81.49;99703.50;5096236;28;20705;-76
2023/11/13 01:49:49;;;;;;;11.87;8.13;;;;;;;5.92;81.81;99706.91;5092417;28;20192;-72
2023/11/13 01:52:19;;;;;;;11.57;8.80;;;;;;;5.96;82.34;99701.81;5099276;28;20204;-70
2023/11/13 01:54:47;;;;;;;9.87;7.70;;;;;;;5.98;81.99;99702.69;5101448;28;20200;-71
2023/11/13 01:57:17;;;;;;;10.23;7.73;;;;;;;6.03;81.86;99700.13;5094334;28;20711;-72
2023/11/13 01:59:46;;;;;;;9.93;7.90;;;;;;;6.04;81.71;99709.53;5093482;28;20266;-73
2023/11/13 02:02:14;;;;;;;12.07;7.63;;;;;;;6.05;82.31;99701.84;5089948;28;20650;-73
2023/11/13 02:04:42;;;;;;;8.57;6.97;;;;;;;6.07;82.40;99701.84;5100361;28;20226;-73
2023/11/13 02:07:11;;;;;;;9.60;7.40;;;;;;;6.00;82.13;99695.88;5092913;28;20683;-72
2023/11/13 02:09:40;;;;;;;9.17;6.80;;;;;;;6.05;82.52;99703.56;5098327;28;20212;-72
2023/11/13 02:12:09;;;;;;;9.93;7.40;;;;;;;6.01;81.75;99702.69;5088396;28;20246;-75
2023/11/13 02:14:39;;;;;;;9.87;5.83;;;;;;;6.00;81.79;99702.69;5092962;28;20215;-73
2023/11/13 02:17:09;;;;;;;9.83;5.97;;;;;;;5.98;81.90;99700.13;5091711;28;20250;-75
2023/11/13 02:19:37;;;;;;;6.77;5.83;;;;;;;5.97;81.75;99700.16;5104761;28;20665;-75
2023/11/13 02:22:05;;;;;;;6.53;5.37;;;;;;;5.94;81.56;99702.69;5086636;28;20296;-71
2023/11/13 02:24:35;;;;;;;6.70;6.00;;;;;;;5.97;81.52;99700.16;5095273;28;20204;-77
2023/11/13 02:27:04;;;;;;;8.50;6.37;;;;;;;6.00;81.91;99700.13;5093436;28;20196;-76
2023/11/13 02:29:32;;;;;;;9.40;6.47;;;;;;;6.00;81.59;99692.44;5090069;28;20226;-77
2023/11/13 02:32:01;;;;;;;7.80;6.27;;;;;;;6.01;81.65;99699.28;5090864;28;20197;-78
2023/11/13 02:34:29;;;;;;;7.23;5.27;;;;;;;6.02;81.84;99701.00;5093249;28;20215;-78
2023/11/13 02:36:57;;;;;;;9.33;5.97;;;;;;;6.01;81.10;99695.03;5092574;28;20567;-80
2023/11/13 02:39:26;;;;;;;9.07;6.43;;;;;;;6.03;81.49;99710.34;5090971;28;20293;-77
2023/11/13 02:41:55;;;;;;;6.93;5.63;;;;;;;6.03;81.40;99710.34;5092753;28;20254;-76
2023/11/13 02:44:24;;;;;;;5.67;4.53;;;;;;;5.99;81.14;99709.50;5093846;28;20296;-78
2023/11/13 02:46:53;;;;;;;6.30;5.07;;;;;;;5.97;81.66;99715.50;5091618;28;20204;-78
2023/11/13 02:49:21;;;;;;;5.80;5.07;;;;;;;5.96;81.23;99714.59;5092781;28;20667;-78
2023/11/13 02:51:50;;;;;;;6.90;5.50;;;;;;;5.96;82.25;99718.88;5093434;28;20200;-77
2023/11/13 02:54:19;;;;;;;9.17;5.20;;;;;;;5.95;81.76;99717.16;5088915;28;20197;-79
2023/11/13 02:56:48;;;;;;;7.60;5.60;;;;;;;5.97;82.42;99726.56;5096396;28;20219;-79
2023/11/13 02:59:19;;;;;;;6.17;4.60;;;;;;;5.99;81.79;99717.16;5089540;28;20216;-78
2023/11/13 03:01:47;;;;;;;6.50;5.30;;;;;;;6.04;82.55;99730.00;5090382;28;20197;-76
2023/11/13 03:04:15;;;;;;;6.97;5.30;;;;;;;6.05;82.43;99734.25;5097407;28;20586;-81
2023/11/13 03:06:43;;;;;;;6.53;5.57;;;;;;;6.02;82.18;99724.00;5095578;28;20200;-78
2023/11/13 03:09:11;;;;;;;7.70;5.80;;;;;;;6.02;83.10;99729.13;5093065;28;20653;-78
2023/11/13 03:11:39;;;;;;;6.63;5.47;;;;;;;6.00;82.95;99735.94;5089694;28;20613;-79
2023/11/13 03:14:07;;;;;;;6.60;5.53;;;;;;;6.01;83.07;99722.31;5093741;28;20208;-77
2023/11/13 03:16:37;;;;;;;6.40;5.17;;;;;;;6.01;82.57;99718.03;5073195;28;20197;-77
2023/11/13 03:19:05;;;;;;;6.47;5.03;;;;;;;5.97;82.93;99711.22;5092406;28;20228;-77
2023/11/13 03:21:33;;;;;;;6.20;5.00;;;;;;;5.96;82.38;99719.72;5093963;28;20315;-82
2023/11/13 03:24:01;;;;;;;5.33;4.70;;;;;;;5.95;82.55;99720.59;5092689;28;20204;-77
2023/11/13 03:26:30;;;;;;;5.83;4.90;;;;;;;5.94;83.15;99710.34;5091248;28;20227;-80
2023/11/13 03:28:58;;;;;;;6.13;5.53;;;;;;;5.96;82.70;99700.97;5091048;28;20207;-77
2023/11/13 03:31:26;;;;;;;5.57;4.93;;;;;;;5.93;82.93;99700.97;5093427;28;20205;-76
2023/11/13 03:33:55;;;;;;;8.53;4.97;;;;;;;5.98;82.97;99701.84;5091250;28;20659;-67
2023/11/13 03:36:24;;;;;;;5.87;5.13;;;;;;;6.01;82.77;99709.53;5089663;28;20300;-70
2023/11/13 03:38:52;;;;;;;7.10;5.07;;;;;;;6.06;82.29;99705.25;5089908;28;20351;-70
2023/11/13 03:41:20;;;;;;;7.20;4.10;;;;;;;6.04;82.28;99702.72;5102134;28;20245;-69
2023/11/13 03:43:48;;;;;;;5.20;4.37;;;;;;;6.04;82.46;99704.41;5094459;28;20223;-68
2023/11/13 03:46:17;;;;;;;6.03;4.83;;;;;;;6.03;82.09;99706.09;5096309;28;20602;-68
2023/11/13 03:48:48;;;;;;;8.10;5.00;;;;;;;6.05;81.76;99706.97;5088371;28;20660;-71
2023/11/13 03:51:18;;;;;;;4.87;3.67;;;;;;;6.05;82.18;99706.97;5091510;28;20201;-73
2023/11/13 03:53:47;;;;;;;6.20;4.13;;;;;;;6.10;82.20;99713.78;5094787;28;20679;-73
2023/11/13 03:56:16;;;;;;;4.30;3.63;;;;;;;6.07;81.06;99711.22;5089969;28;20237;-73
2023/11/13 03:58:44;;;;;;;4.20;3.80;;;;;;;6.07;80.71;99717.19;5090576;28;20239;-72
2023/11/13 04:01:12;;;;;;;4.67;3.60;;;;;;;6.03;81.30;99715.47;5090901;28;20204;-73
2023/11/13 04:03:40;;;;;;;5.50;3.53;;;;;;;6.03;80.81;99720.59;5090724;28;20279;-73
2023/11/13 04:06:08;;;;;;;5.03;3.90;;;;;;;5.97;80.62;99718.88;5090326;28;20269;-72
2023/11/13 04:08:38;;;;;;;4.27;3.30;;;;;;;5.90;80.53;99718.84;5087743;28;20588;-72
2023/11/13 04:11:06;;;;;;;4.13;3.20;;;;;;;5.92;81.40;99722.25;5090832;28;20295;-71
2023/11/13 04:13:37;;;;;;;3.67;2.77;;;;;;;5.90;80.83;99721.41;5094473;28;20201;-72
2023/11/13 04:16:07;;;;;;;3.20;2.90;;;;;;;5.76;81.24;99711.97;5090429;28;20214;-73
2023/11/13 04:18:36;;;;;;;3.13;2.53;;;;;;;5.73;81.38;99722.19;5072708;28;20567;-72
2023/11/13 04:21:05;;;;;;;2.47;2.27;;;;;;;5.72;81.77;99715.38;5102705;28;20238;-71
2023/11/13 04:23:33;;;;;;;4.53;2.60;;;;;;;5.74;81.40;99718.81;5088904;28;20208;-74
2023/11/13 04:26:03;;;;;;;3.50;2.43;;;;;;;5.79;81.17;99717.13;5091172;28;20250;-74
2023/11/13 04:28:32;;;;;;;3.13;2.63;;;;;;;5.84;80.89;99718.81;5087591;28;20556;-73
2023/11/13 04:31:06;;;;;;;3.50;2.80;;;;;;;5.85;81.43;99710.28;5100844;28;20642;-72
2023/11/13 04:33:34;;;;;;;2.53;2.33;;;;;;;5.87;80.74;99718.84;5091506;28;20212;-74
2023/11/13 04:36:02;;;;;;;3.30;2.63;;;;;;;5.89;81.24;99712.00;5088428;28;20204;-73
2023/11/13 04:38:31;;;;;;;3.43;3.00;;;;;;;5.86;81.40;99705.19;5089097;28;20212;-73
2023/11/13 04:40:59;;;;;;;4.07;3.23;;;;;;;5.96;81.21;99722.28;5079231;28;20823;-73
2023/11/13 04:43:28;;;;;;;3.97;3.40;;;;;;;5.95;80.40;99715.47;5090177;28;20303;-73
2023/11/13 04:45:57;;;;;;;4.37;3.97;;;;;;;5.97;80.99;99720.59;5084451;28;20205;-72
2023/11/13 04:48:25;;;;;;;5.80;4.20;;;;;;;5.91;81.81;99729.06;5090765;28;20200;-72
2023/11/13 04:50:53;;;;;;;4.63;4.07;;;;;;;5.93;81.59;99726.53;5090563;28;20204;-71
2023/11/13 04:53:22;;;;;;;5.47;4.13;;;;;;;5.93;81.82;99726.53;5086414;28;20208;-74
2023/11/13 04:55:50;;;;;;;6.97;4.40;;;;;;;5.94;82.00;99730.81;5091756;28;20700;-74
2023/11/13 04:58:19;;;;;;;5.97;4.47;;;;;;;6.00;81.76;99736.81;5093566;28;20220;-75
2023/11/13 05:00:50;;;;;;;6.67;5.00;;;;;;;6.00;82.21;99728.25;5079626;28;20228;-73
2023/11/13 05:03:19;;;;;;;7.23;5.70;;;;;;;6.00;82.59;99725.69;5088276;28;20214;-72
2023/11/13 05:05:47;;;;;;;7.73;5.73;;;;;;;6.00;82.47;99725.69;5091489;28;20204;-72
2023/11/13 05:08:15;;;;;;;7.97;6.40;;;;;;;5.98;82.99;99724.84;5094045;28;20299;-73
2023/11/13 05:10:43;;;;;;;8.90;6.73;;;;;;;5.98;82.91;99722.28;5091036;28;20278;-72
2023/11/13 05:13:14;;;;;;;12.10;6.83;;;;;;;5.96;82.72;99714.59;5089958;28;20204;-73
2023/11/13 05:15:43;;;;;;;7.93;6.53;;;;;;;5.95;83.94;99718.03;5090643;28;20200;-72
2023/11/13 05:18:12;;;;;;;9.83;6.93;;;;;;;6.00;83.68;99723.13;5086885;28;20228;-72
2023/11/13 05:20:43;;;;;;;9.80;7.27;;;;;;;6.00;83.90;99725.69;5104291;28;20682;-72
2023/11/13 05:23:11;;;;;;;9.87;7.90;;;;;;;5.95;83.59;99722.28;5088894;28;20729;-73
2023/11/13 05:25:40;;;;;;;9.13;6.83;;;;;;;6.00;84.34;99736.81;5095296;28;20544;-74
2023/11/13 05:28:08;;;;;;;11.27;7.90;;;;;;;6.00;83.47;99734.25;5089632;28;20199;-73
2023/11/13 05:30:38;;;;;;;12.30;7.37;;;;;;;5.98;83.63;99725.69;5087426;28;20200;-74
2023/11/13 05:33:06;;;;;;;11.13;8.03;;;;;;;5.92;84.31;99728.25;5093231;28;20208;-73
2023/11/13 05:35:36;;;;;;;9.90;7.77;;;;;;;5.88;84.11;99731.59;5091830;28;20232;-73
2023/11/13 05:38:04;;;;;;;12.23;7.93;;;;;;;5.91;84.75;99741.00;5090064;28;20209;-71
2023/11/13 05:40:32;;;;;;;11.00;8.03;;;;;;;5.91;84.36;99738.44;5093623;28;20246;-73
2023/11/13 05:43:00;;;;;;;10.63;8.17;;;;;;;5.86;84.38;99746.13;5102602;28;20589;-72
2023/11/13 05:45:28;;;;;;;13.47;8.50;;;;;;;5.82;85.13;99755.47;5095611;28;21173;-75
2023/11/13 05:47:57;;;;;;;9.97;8.03;;;;;;;5.81;85.45;99747.78;5093524;28;20216;-73
2023/11/13 05:50:25;;;;;;;12.40;9.20;;;;;;;5.78;85.54;99755.44;5095331;28;20212;-65
2023/11/13 05:52:55;;;;;;;12.40;8.80;;;;;;;5.80;85.71;99752.03;5093396;28;20589;-68
2023/11/13 05:55:23;;;;;;;12.30;8.83;;;;;;;5.78;85.43;99745.22;5102515;28;20215;-69
2023/11/13 05:57:52;;;;;;;13.37;8.87;;;;;;;5.81;85.74;99743.50;5090442;28;20306;-68
2023/11/13 06:00:21;;;;;;;13.70;9.63;;;;;;;5.85;85.17;99744.38;5092812;28;20315;-68
2023/11/13 06:02:49;;;;;;;12.30;8.93;;;;;;;5.85;84.77;99746.09;5095501;28;20697;-68
2023/11/13 06:05:19;;;;;;;12.63;8.63;;;;;;;5.85;84.64;99748.66;5095727;28;20209;-69
2023/11/13 06:07:47;;;;;;;12.27;8.40;;;;;;;5.85;84.16;99756.31;5091586;28;20291;-67
2023/11/13 06:10:16;;;;;;;12.07;9.77;;;;;;;5.84;84.64;99758.03;5090203;28;20232;-68
2023/11/13 06:12:44;;;;;;;12.37;8.87;;;;;;;5.88;83.77;99762.28;5089607;28;20771;-68
2023/11/13 06:15:14;;;;;;;14.73;9.70;;;;;;;5.90;83.70;99752.09;5092942;28;20235;-67
2023/11/13 06:17:42;;;;;;;13.50;9.97;;;;;;;5.91;83.78;99753.78;5089104;28;20240;-66
2023/11/13 06:20:13;;;;;;;13.83;8.93;;;;;;;5.90;82.79;99770.00;5084062;28;20228;-67
2023/11/13 06:22:41;;;;;;;14.03;9.10;;;;;;;5.85;83.13;99764.84;5087485;28;20212;-67
2023/11/13 06:25:10;;;;;;;11.50;8.37;;;;;;;5.89;83.47;99763.13;5094528;28;20201;-67
2023/11/13 06:27:40;;;;;;;14.47;9.10;;;;;;;5.93;82.68;99775.13;5093261;28;20197;-67
2023/11/13 06:30:12;;;;;;;11.67;9.07;;;;;;;5.93;82.16;99760.66;5090426;28;20567;-65
2023/11/13 06:32:40;;;;;;;12.57;8.63;;;;;;;5.97;82.72;99771.75;5092848;28;20209;-66
2023/11/13 06:35:11;;;;;;;10.60;8.93;;;;;;;5.94;82.38;99777.69;5090660;28;20231;-64
2023/11/13 06:37:41;;;;;;;11.77;8.60;;;;;;;5.97;82.22;99771.75;5093406;28;20660;-65
2023/11/13 06:40:10;;;;;;;11.97;7.93;;;;;;;6.01;81.73;99776.88;5092551;28;20224;-70
2023/11/13 06:42:40;;;;;;;10.97;7.70;;;;;;;6.04;80.66;99776.03;5098010;28;20210;-67
2023/11/13 06:45:11;;;;;;;10.93;8.00;;;;;;;6.05;80.92;99775.16;5093067;28;20209;-69
2023/11/13 06:47:41;;;;;;;10.20;7.57;;;;;;;6.08;80.46;99771.78;5092411;28;20201;-70
2023/11/13 06:50:10;;;;;;;13.07;8.23;;;;;;;6.08;80.91;99779.44;5094821;28;20590;-74
2023/11/13 06:52:38;;;;;;;11.87;8.20;;;;;;;6.15;80.58;99787.13;5094383;28;20761;-75
2023/11/13 06:55:12;;;;;;;9.33;7.43;;;;;;;6.17;80.37;99787.13;5089758;28;20200;-74
2023/11/13 06:57:42;;;;;;;10.10;7.43;;;;;;;6.16;79.98;99788.84;5093863;28;20651;-74
2023/11/13 07:00:12;;;;;;;10.00;8.10;;;;;;;6.16;79.84;99781.16;5098733;28;20223;-74
2023/11/13 07:02:43;;;;;;;11.90;7.70;;;;;;;6.16;78.98;99788.84;5097254;28;20210;-73
2023/11/13 07:05:11;;;;;;;12.10;8.00;;;;;;;6.16;78.80;99786.28;5097431;28;20203;-68
2023/11/13 07:07:41;;;;;;;12.90;8.60;;;;;;;6.21;79.46;99789.69;5096229;28;20234;-68
2023/11/13 07:10:12;;;;;;;12.17;7.67;;;;;;;6.18;78.13;99792.22;5091950;28;20197;-69
2023/11/13 07:12:43;;;;;;;10.13;7.47;;;;;;;6.20;78.53;99790.53;5089022;28;20653;-68
2023/11/13 07:15:12;;;;;;;11.60;7.30;;;;;;;6.17;78.33;99774.34;5091378;28;20303;-69
2023/11/13 07:17:40;;;;;;;9.80;7.70;;;;;;;6.18;78.15;99783.72;5087159;28;20211;-67
2023/11/13 07:20:12;;;;;;;9.63;7.07;;;;;;;6.17;77.92;99785.41;5085868;28;20216;-69
2023/11/13 07:22:40;;;;;;;10.53;7.40;;;;;;;6.18;77.81;99782.00;5091304;28;20650;-69
2023/11/13 07:25:09;;;;;;;10.50;7.97;;;;;;;6.20;77.51;99790.53;5090664;28;20197;-70
2023/11/13 07:27:37;;;;;;;10.93;7.57;;;;;;;6.21;77.25;99784.56;5087855;28;20201;-70
2023/11/13 07:30:10;;;;;;;11.63;7.87;;;;;;;6.26;77.74;99790.56;5090622;28;20212;-62
2023/11/13 07:32:38;;;;;;;11.73;7.70;;;;;;;6.34;77.36;99782.91;5088280;28;20201;-70
2023/11/13 07:35:07;;;;;;;11.00;8.00;;;;;;;6.28;76.93;99788.84;5091749;28;20303;-70
2023/11/13 07:37:36;;;;;;;9.10;6.93;;;;;;;6.31;77.29;99792.28;5082377;28;20259;-70
2023/11/13 07:40:09;;;;;;;9.80;7.00;;;;;;;6.24;76.24;99792.25;5086917;28;20315;-70
2023/11/13 07:42:37;;;;;;;9.90;7.33;;;;;;;6.29;76.53;99784.56;5085889;28;20208;-70
2023/11/13 07:45:09;;;;;;;9.87;6.93;;;;;;;6.31;76.26;99792.28;5091744;28;20556;-71
2023/11/13 07:47:39;;;;;;;8.83;6.83;;;;;;;6.27;76.02;99789.72;5087215;28;20204;-70
2023/11/13 07:50:11;;;;;;;11.30;7.07;;;;;;;6.28;75.84;99795.66;5090540;28;20613;-70
2023/11/13 07:52:43;;;;;;;7.83;6.37;;;;;;;6.34;76.14;99794.84;5101537;28;20253;-70
2023/11/13 07:55:12;;;;;;;11.63;6.60;;;;;;;6.37;75.89;99792.25;5090483;28;20239;-70
2023/11/13 07:57:41;;;;;;;9.43;6.63;;;;;;;6.44;75.36;99799.09;5089219;28;20284;-69
2023/11/13 08:00:15;;;;;;;9.33;7.40;;;;;;;6.42;75.43;99794.00;5093051;28;20208;-70
2023/11/13 08:02:44;;;;;;;8.93;6.70;;;;;;;6.49;74.59;99803.38;5089160;28;20230;-67
2023/11/13 08:05:16;;;;;;;9.23;6.40;;;;;;;6.52;74.60;99805.94;5091117;28;20208;-68
2023/11/13 08:07:49;;;;;;;10.33;6.83;;;;;;;6.56;74.39;99804.25;5096488;28;20557;-68
2023/11/13 08:10:18;;;;;;;9.00;6.80;;;;;;;6.62;74.66;99809.34;5089407;28;20246;-68
2023/11/13 08:12:49;;;;;;;8.10;5.90;;;;;;;6.59;73.62;99823.84;5090068;28;20212;-67
2023/11/13 08:15:21;;;;;;;11.10;6.83;;;;;;;6.58;74.19;99822.16;5081163;28;20655;-73
2023/11/13 08:17:52;;;;;;;9.63;6.53;;;;;;;6.58;73.66;99817.88;5095893;28;20240;-72
2023/11/13 08:20:25;;;;;;;8.33;6.10;;;;;;;6.57;73.91;99829.00;5088808;28;20213;-72
2023/11/13 08:22:56;;;;;;;9.60;6.77;;;;;;;6.54;73.47;99826.41;5090147;28;20204;-72
2023/11/13 08:25:25;;;;;;;8.00;6.00;;;;;;;6.44;74.11;99825.56;5094198;28;20196;-73
2023/11/13 08:27:53;;;;;;;10.40;6.93;;;;;;;6.45;73.92;99831.53;5090958;28;20361;-72
2023/11/13 08:30:23;;;;;;;8.93;6.30;;;;;;;6.40;73.79;99825.53;5087385;28;20197;-71
2023/11/13 08:32:53;;;;;;;11.60;6.60;;;;;;;6.37;73.79;99823.84;5086764;28;20220;-72
2023/11/13 08:35:21;;;;;;;10.63;6.40;;;;;;;6.42;74.34;99831.53;5089139;28;20531;-72
2023/11/13 08:37:50;;;;;;;9.83;6.13;;;;;;;6.42;74.18;99826.41;5092743;28;20209;-72
2023/11/13 08:40:24;;;;;;;8.70;5.77;;;;;;;6.43;73.56;99828.09;5090105;28;20675;-73
2023/11/13 08:42:53;;;;;;;6.70;5.60;;;;;;;6.48;73.84;99827.28;5097391;28;20203;-71
2023/11/13 08:45:24;;;;;;;8.53;6.13;;;;;;;6.53;73.13;99830.69;5087682;28;20204;-75
2023/11/13 08:47:54;;;;;;;8.63;5.93;;;;;;;6.61;72.67;99822.16;5084357;28;20214;-71
2023/11/13 08:50:24;;;;;;;7.53;5.57;;;;;;;6.62;72.88;99818.75;5098316;28;20291;-71
2023/11/13 08:52:56;;;;;;;6.33;5.27;;;;;;;6.66;72.47;99810.22;5095144;28;20200;-72
2023/11/13 08:55:25;;;;;;;7.97;6.00;;;;;;;6.70;72.82;99811.91;5095551;28;20200;-74
2023/11/13 08:57:55;;;;;;;7.27;5.20;;;;;;;6.74;72.62;99819.63;5092009;28;20231;-71
2023/11/13 09:00:28;;;;;;;8.73;5.17;;;;;;;6.77;71.88;99819.63;5089727;28;20226;-72
2023/11/13 09:02:57;;;;;;;7.30;5.53;;;;;;;6.83;72.41;99820.47;5093226;28;20208;-71
2023/11/13 09:05:29;;;;;;;9.47;5.97;;;;;;;6.89;72.13;99823.03;5095453;28;20196;-71
2023/11/13 09:08:02;;;;;;;9.17;6.37;;;;;;;6.89;72.32;99813.66;5096549;28;20205;-73
2023/11/13 09:10:31;;;;;;;7.73;6.10;;;;;;;6.91;72.07;99811.06;5095847;28;20675;-73
2023/11/13 09:13:00;;;;;;;9.00;6.17;;;;;;;6.91;72.22;99811.91;5089771;28;20201;-71
2023/11/13 09:15:31;;;;;;;9.03;5.73;;;;;;;6.92;71.88;99817.88;5091269;28;20223;-73
2023/11/13 09:18:05;;;;;;;7.47;6.40;;;;;;;6.94;71.61;99816.19;5091211;28;20236;-75
2023/11/13 09:20:34;;;;;;;10.53;6.30;;;;;;;6.92;72.62;99818.78;5100563;28;20215;-72
2023/11/13 09:23:04;;;;;;;9.13;6.00;;;;;;;6.99;72.33;99819.59;5083003;28;20206;-71
2023/11/13 09:25:32;;;;;;;7.77;6.37;;;;;;;7.03;72.18;99826.41;5093980;28;20684;-72
2023/11/13 09:28:02;;;;;;;9.37;6.63;;;;;;;7.06;72.08;99815.31;5094122;28;20613;-74
2023/11/13 09:30:33;;;;;;;8.00;6.20;;;;;;;7.13;71.75;99819.59;5091832;28;20197;-73
2023/11/13 09:33:02;;;;;;;11.03;7.20;;;;;;;7.14;71.24;99816.16;5091815;28;20627;-71
2023/11/13 09:35:32;;;;;;;8.47;6.53;;;;;;;7.14;71.73;99818.72;5093044;28;20197;-75
2023/11/13 09:38:01;;;;;;;10.30;6.23;;;;;;;7.14;71.70;99822.16;5095767;28;20207;-75
2023/11/13 09:40:34;;;;;;;7.30;6.60;;;;;;;7.20;71.94;99822.13;5095451;28;20674;-77
2023/11/13 09:43:12;;;;;;;8.83;6.87;;;;;;;7.25;71.54;99820.44;5083117;28;20208;-70
2023/11/13 09:45:51;;;;;;;9.17;6.40;;;;;;;7.24;70.70;99826.41;5093914;28;20208;-71
2023/11/13 09:48:29;;;;;;;8.73;6.33;;;;;;;7.13;71.48;99827.28;5094646;28;20221;-71
2023/11/13 09:50:58;;;;;;;10.23;6.43;;;;;;;7.14;71.97;99831.53;5094020;28;20204;-73
2023/11/13 09:53:28;;;;;;;10.10;6.33;;;;;;;7.09;72.02;99816.19;5094634;28;20654;-72
2023/11/13 09:55:59;;;;;;;9.73;6.30;;;;;;;7.14;71.54;99831.53;5092226;28;20208;-75
2023/11/13 09:58:27;;;;;;;8.37;6.63;;;;;;;7.10;71.53;99830.69;5098402;28;20619;-72
2023/11/13 10:00:58;;;;;;;8.10;5.97;;;;;;;7.15;72.94;99821.31;5091451;28;20569;-72
2023/11/13 10:03:29;;;;;;;9.77;6.17;;;;;;;7.22;72.29;99823.00;5094196;28;20215;-73
2023/11/13 10:05:57;;;;;;;8.50;6.53;;;;;;;7.19;71.13;99828.13;5100051;28;20212;-72
2023/11/13 10:08:26;;;;;;;7.30;5.90;;;;;;;7.24;71.54;99825.56;5085171;28;20266;-66
2023/11/13 10:10:55;;;;;;;9.47;6.10;;;;;;;7.21;71.48;99831.53;5089893;28;20686;-68
2023/11/13 10:13:23;;;;;;;7.27;5.97;;;;;;;7.21;71.45;99828.13;5090007;28;20203;-77
2023/11/13 10:15:52;;;;;;;8.70;6.40;;;;;;;7.32;71.31;99835.78;5085037;28;20619;-76
2023/11/13 10:18:28;;;;;;;7.23;6.40;;;;;;;7.41;71.22;99835.78;5089549;28;20232;-74
2023/11/13 10:21:01;;;;;;;10.63;6.53;;;;;;;7.40;71.10;99829.81;5093814;28;20212;-70
2023/11/13 10:23:35;;;;;;;8.93;5.90;;;;;;;7.50;71.40;99823.78;5085829;28;20227;-72
2023/11/13 10:26:04;;;;;;;8.93;6.30;;;;;;;7.58;71.32;99826.31;5094454;28;20231;-74
2023/11/13 10:28:36;;;;;;;10.27;7.07;;;;;;;7.63;70.77;99824.63;5092676;28;20663;-68
2023/11/13 10:31:12;;;;;;;10.70;6.33;;;;;;;7.69;71.69;99824.56;5089731;28;20660;-69
2023/11/13 10:33:59;;;;;;;8.70;6.60;;;;;;;7.71;70.47;99815.19;5089969;28;20193;-73
2023/11/13 10:36:28;;;;;;;10.53;6.60;;;;;;;7.61;70.08;99816.06;5099290;28;20207;-75
2023/11/13 10:39:11;;;;;;;8.20;6.57;;;;;;;7.56;70.11;99817.78;5092854;28;20715;-76
2023/11/13 10:41:48;;;;;;;8.40;6.47;;;;;;;7.53;70.94;99822.06;5091678;28;20268;-72
2023/11/13 10:44:27;;;;;;;8.60;6.60;;;;;;;7.45;70.47;99811.84;5091807;28;20201;-73
2023/11/13 10:46:55;;;;;;;8.67;6.43;;;;;;;7.45;70.61;99816.97;5095003;28;20230;-71
2023/11/13 10:49:25;;;;;;;8.10;6.33;;;;;;;7.42;70.67;99817.81;5089718;28;20648;-72
2023/11/13 10:51:54;;;;;;;7.93;6.53;;;;;;;7.40;71.26;99821.25;5090230;28;20211;-74
2023/11/13 10:54:23;;;;;;;8.47;7.23;;;;;;;7.42;70.82;99802.44;5092078;28;20196;-71
2023/11/13 10:56:54;;;;;;;9.17;7.33;;;;;;;7.43;71.25;99819.53;5088252;28;20214;-72
2023/11/13 10:59:24;;;;;;;7.90;6.93;;;;;;;7.43;71.41;99816.13;5097524;28;20311;-72
2023/11/13 11:01:57;;;;;;;12.37;6.97;;;;;;;7.47;70.84;99812.69;5084678;28;20228;-75
2023/11/13 11:04:29;;;;;;;9.13;7.30;;;;;;;7.43;70.90;99801.59;5083113;28;20865;-72
2023/11/13 11:07:01;;;;;;;11.97;7.23;;;;;;;7.51;71.32;99809.25;5095017;28;20615;-74
2023/11/13 11:09:30;;;;;;;8.77;6.70;;;;;;;7.54;71.40;99806.69;5091836;28;20209;-71
2023/11/13 11:12:03;;;;;;;9.07;6.90;;;;;;;7.56;71.32;99797.28;5088676;28;20564;-69
2023/11/13 11:14:46;;;;;;;9.63;7.13;;;;;;;7.63;71.81;99809.22;5089902;28;20201;-72
2023/11/13 11:17:25;;;;;;;10.83;7.03;;;;;;;7.70;71.02;99800.66;5081373;28;20277;-72
2023/11/13 11:20:02;;;;;;;10.73;7.97;;;;;;;7.72;70.83;99816.88;5081810;28;20270;-74
2023/11/13 11:22:39;;;;;;;9.27;7.30;;;;;;;7.67;71.27;99810.91;5084557;28;20208;-69
2023/11/13 11:25:30;;;;;;;9.17;7.40;;;;;;;7.68;71.21;99810.06;5088654;28;20211;-70
2023/11/13 11:27:58;;;;;;;9.87;7.33;;;;;;;7.64;71.21;99805.81;5090180;28;20633;-73
2023/11/13 11:30:35;;;;;;;9.00;7.57;;;;;;;7.66;71.52;99814.34;5091913;28;20205;-73
2023/11/13 11:33:05;;;;;;;9.90;7.63;;;;;;;7.65;71.96;99806.66;5083917;28;20228;-69
2023/11/13 11:35:41;;;;;;;10.93;7.93;;;;;;;7.68;71.23;99804.94;5089297;28;20193;-71
2023/11/13 11:38:17;;;;;;;9.80;7.17;;;;;;;7.74;71.93;99796.38;5086365;28;20215;-74
2023/11/13 11:40:48;;;;;;;10.53;7.47;;;;;;;7.81;71.16;99805.75;5096531;28;20231;-71
2023/11/13 11:43:21;;;;;;;10.37;7.50;;;;;;;7.86;71.58;99804.00;5096555;28;20216;-70
2023/11/13 11:45:52;;;;;;;10.93;7.33;;;;;;;7.88;70.69;99791.16;5087661;28;20250;-73
2023/11/13 11:48:24;;;;;;;9.93;7.67;;;;;;;7.91;71.33;99794.56;5080224;28;20204;-72